PWSweather.com
Personal Weather Stations
Station Observations
UWIDEPER1
Brown County, Depere, WI 54115

Brown CountyDepere, WI 54115

Lat: 44.44, Lon: -88.05

Elevation: 610

Station Type: Acurite 5in1

Latest ConditionsUpdated 6:15:01 PM CST Sunday, Jan 22, 2017
Currently Today's Max Today's Min Today's Average
Temperature 36.9°F2.7°C 40.5°F4.7°C 36.9°F2.7°C 38.0°F3.3°C
Dew Point 35.9°F2.2°C 38.3°F3.5°C 35.9°F2.2°C 37.1°F2.8°C
Winds Calm Calm 6.9 mph W11.1 kmh W - 1.3 mph 2.1 kmh
Wind Gusts -- 6.9 mph11.1 kmh - -
Humidity 96% 98% 91% 96%
Pressure 29.69 in1005.4 mb 29.69 in1005.4 mb 29.57 in1001.4 mb -
Precipitation - 0.01 in0.3 mm - -
Hour Temp Dew Point Humidity Winds Wind Gusts Pressure Precip Precip Rate Daily Precip Total
06:15 PM 36.9°F2.7°C 35.9°F2.2°C 96% Calm Calm -- 29.69 in1005.4 mb - 0.00 in0.0 mm 0.01 in0.3 mm
06:10 PM 36.9°F2.7°C 35.9°F2.2°C 96% Calm Calm -- 29.69 in1005.4 mb - 0.00 in0.0 mm 0.01 in0.3 mm
06:00 PM 37.0°F2.8°C 36.0°F2.2°C 96% Calm Calm -- 29.69 in1005.4 mb - 0.00 in0.0 mm 0.01 in0.3 mm
05:55 PM 37.0°F2.8°C 36.0°F2.2°C 96% Calm Calm -- 29.69 in1005.4 mb - 0.00 in0.0 mm 0.01 in0.3 mm
05:50 PM 37.0°F2.8°C 36.0°F2.2°C 96% Calm Calm -- 29.69 in1005.4 mb - 0.00 in0.0 mm 0.01 in0.3 mm
05:45 PM 37.0°F2.8°C 36.0°F2.2°C 96% Calm Calm -- 29.69 in1005.4 mb - 0.00 in0.0 mm 0.01 in0.3 mm
05:40 PM 37.2°F2.9°C 36.2°F2.3°C 96% Calm Calm -- 29.69 in1005.4 mb - 0.00 in0.0 mm 0.01 in0.3 mm
05:35 PM 37.2°F2.9°C 36.2°F2.3°C 96% Calm Calm 2.3 mph3.7 kmh 29.69 in1005.4 mb - 0.00 in0.0 mm 0.01 in0.3 mm
05:30 PM 37.2°F2.9°C 36.2°F2.3°C 96% Calm Calm 2.3 mph3.7 kmh 29.69 in1005.4 mb - 0.00 in0.0 mm 0.01 in0.3 mm
05:25 PM 37.2°F2.9°C 36.2°F2.3°C 96% Calm Calm 2.3 mph3.7 kmh 29.69 in1005.4 mb - 0.00 in0.0 mm 0.01 in0.3 mm
05:20 PM 37.4°F3.0°C 36.4°F2.4°C 96% Calm Calm 2.3 mph3.7 kmh 29.69 in1005.4 mb - 0.00 in0.0 mm 0.01 in0.3 mm
05:15 PM 37.4°F3.0°C 36.4°F2.4°C 96% 2.3 mph SSW3.7 kmh SSW 3.5 mph5.6 kmh 29.69 in1005.4 mb - 0.00 in0.0 mm 0.01 in0.3 mm
05:10 PM 37.5°F3.1°C 36.5°F2.5°C 96% Calm Calm 3.5 mph5.6 kmh 29.69 in1005.4 mb - 0.00 in0.0 mm 0.01 in0.3 mm
05:00 PM 37.5°F3.1°C 36.5°F2.5°C 96% 2.3 mph WSW3.7 kmh WSW 3.5 mph5.6 kmh 29.68 in1005.1 mb - 0.00 in0.0 mm 0.01 in0.3 mm
04:55 PM 37.5°F3.1°C 36.5°F2.5°C 96% 2.3 mph SSW3.7 kmh SSW 3.5 mph5.6 kmh 29.68 in1005.1 mb - 0.00 in0.0 mm 0.01 in0.3 mm
04:50 PM 37.7°F3.2°C 36.7°F2.6°C 96% 1.2 mph SSW1.9 kmh SSW 3.5 mph5.6 kmh 29.68 in1005.1 mb - 0.00 in0.0 mm 0.01 in0.3 mm
04:45 PM 37.7°F3.2°C 36.7°F2.6°C 96% Calm Calm 3.5 mph5.6 kmh 29.67 in1004.7 mb - 0.00 in0.0 mm 0.01 in0.3 mm
04:40 PM 37.8°F3.2°C 36.8°F2.7°C 96% 2.3 mph SSE3.7 kmh SSE 3.5 mph5.6 kmh 29.68 in1005.1 mb - 0.00 in0.0 mm 0.01 in0.3 mm
04:35 PM 37.8°F3.2°C 36.8°F2.7°C 96% Calm Calm 2.3 mph3.7 kmh 29.68 in1005.1 mb - 0.00 in0.0 mm 0.01 in0.3 mm
04:30 PM 37.8°F3.2°C 36.8°F2.7°C 96% Calm Calm 2.3 mph3.7 kmh 29.67 in1004.7 mb - 0.00 in0.0 mm 0.01 in0.3 mm
04:25 PM 38.0°F3.3°C 36.7°F2.6°C 95% 1.2 mph S1.9 kmh S 2.3 mph3.7 kmh 29.68 in1005.1 mb - 0.00 in0.0 mm 0.01 in0.3 mm
04:20 PM 38.2°F3.4°C 36.9°F2.7°C 95% 1.2 mph SSE1.9 kmh SSE 2.3 mph3.7 kmh 29.67 in1004.7 mb - 0.00 in0.0 mm 0.01 in0.3 mm
04:15 PM 38.2°F3.4°C 36.9°F2.7°C 95% Calm Calm 2.3 mph3.7 kmh 29.68 in1005.1 mb - 0.00 in0.0 mm 0.01 in0.3 mm
04:10 PM 38.2°F3.4°C 36.9°F2.7°C 95% 1.2 mph SSW1.9 kmh SSW 2.3 mph3.7 kmh 29.67 in1004.7 mb - 0.00 in0.0 mm 0.01 in0.3 mm
04:00 PM 38.4°F3.6°C 36.6°F2.6°C 93% 1.2 mph S1.9 kmh S 3.5 mph5.6 kmh 29.67 in1004.7 mb - 0.00 in0.0 mm 0.01 in0.3 mm
03:55 PM 38.4°F3.6°C 36.6°F2.6°C 93% Calm Calm 3.5 mph5.6 kmh 29.67 in1004.7 mb - 0.00 in0.0 mm 0.01 in0.3 mm
03:50 PM 38.7°F3.7°C 36.9°F2.7°C 93% 2.3 mph SSW3.7 kmh SSW 3.5 mph5.6 kmh 29.67 in1004.7 mb - 0.00 in0.0 mm 0.01 in0.3 mm
03:45 PM 38.7°F3.7°C 36.9°F2.7°C 93% Calm Calm 1.2 mph1.9 kmh 29.67 in1004.7 mb - 0.00 in0.0 mm 0.01 in0.3 mm
03:40 PM 38.7°F3.7°C 36.9°F2.7°C 93% Calm Calm 2.3 mph3.7 kmh 29.67 in1004.7 mb - 0.00 in0.0 mm 0.01 in0.3 mm
03:35 PM 38.7°F3.7°C 36.9°F2.7°C 93% Calm Calm 3.5 mph5.6 kmh 29.66 in1004.4 mb - 0.00 in0.0 mm 0.01 in0.3 mm
03:30 PM 39.0°F3.9°C 37.1°F2.8°C 93% Calm Calm 3.5 mph5.6 kmh 29.67 in1004.7 mb - 0.00 in0.0 mm 0.01 in0.3 mm
03:25 PM 39.0°F3.9°C 37.2°F2.9°C 93% 2.3 mph SSW3.7 kmh SSW 3.5 mph5.6 kmh 29.66 in1004.4 mb - 0.00 in0.0 mm 0.01 in0.3 mm
03:20 PM 39.2°F4.0°C 37.4°F3.0°C 93% 2.3 mph S3.7 kmh S 3.5 mph5.6 kmh 29.66 in1004.4 mb - 0.00 in0.0 mm 0.01 in0.3 mm
03:15 PM 39.4°F4.1°C 37.0°F2.8°C 91% 2.3 mph SE3.7 kmh SE 3.5 mph5.6 kmh 29.66 in1004.4 mb - 0.00 in0.0 mm 0.01 in0.3 mm
03:10 PM 39.7°F4.3°C 37.3°F2.9°C 91% 1.2 mph SW1.9 kmh SW 3.5 mph5.6 kmh 29.66 in1004.4 mb - 0.00 in0.0 mm 0.01 in0.3 mm
03:00 PM 40.0°F4.4°C 37.6°F3.1°C 91% 2.3 mph WSW3.7 kmh WSW 3.5 mph5.6 kmh 29.66 in1004.4 mb - 0.00 in0.0 mm 0.01 in0.3 mm
02:55 PM 40.2°F4.6°C 37.8°F3.2°C 91% 2.3 mph SSW3.7 kmh SSW 3.5 mph5.6 kmh 29.66 in1004.4 mb - 0.00 in0.0 mm 0.01 in0.3 mm
02:50 PM 40.2°F4.6°C 37.8°F3.2°C 91% 2.3 mph W3.7 kmh W 3.5 mph5.6 kmh 29.66 in1004.4 mb - 0.00 in0.0 mm 0.01 in0.3 mm
02:45 PM 39.9°F4.4°C 37.5°F3.1°C 91% 2.3 mph SW3.7 kmh SW 3.5 mph5.6 kmh 29.65 in1004.1 mb - 0.00 in0.0 mm 0.01 in0.3 mm
02:40 PM 39.9°F4.4°C 37.5°F3.1°C 91% 2.3 mph W3.7 kmh W 3.5 mph5.6 kmh 29.65 in1004.1 mb - 0.00 in0.0 mm 0.01 in0.3 mm
02:35 PM 40.5°F4.7°C 38.1°F3.4°C 91% 1.2 mph W1.9 kmh W 3.5 mph5.6 kmh 29.65 in1004.1 mb - 0.00 in0.0 mm 0.01 in0.3 mm
02:30 PM 40.5°F4.7°C 38.1°F3.4°C 91% 3.5 mph W5.6 kmh W 3.5 mph5.6 kmh 29.65 in1004.1 mb - 0.00 in0.0 mm 0.01 in0.3 mm
02:25 PM 40.5°F4.7°C 38.1°F3.4°C 91% 2.3 mph W3.7 kmh W 3.5 mph5.6 kmh 29.65 in1004.1 mb - 0.00 in0.0 mm 0.01 in0.3 mm
02:20 PM 40.2°F4.6°C 37.8°F3.2°C 91% 1.2 mph WSW1.9 kmh WSW 3.5 mph5.6 kmh 29.65 in1004.1 mb - 0.00 in0.0 mm 0.01 in0.3 mm
02:15 PM 39.9°F4.4°C 37.5°F3.1°C 91% 1.2 mph SW1.9 kmh SW 3.5 mph5.6 kmh 29.64 in1003.7 mb - 0.00 in0.0 mm 0.01 in0.3 mm
02:10 PM 39.9°F4.4°C 37.5°F3.1°C 91% 3.5 mph W5.6 kmh W 4.6 mph7.4 kmh 29.64 in1003.7 mb - 0.00 in0.0 mm 0.01 in0.3 mm
02:00 PM 39.9°F4.4°C 37.5°F3.1°C 91% 3.5 mph SSW5.6 kmh SSW 6.9 mph11.1 kmh 29.64 in1003.7 mb - 0.00 in0.0 mm 0.01 in0.3 mm
01:55 PM 39.9°F4.4°C 37.5°F3.1°C 91% 6.9 mph W11.1 kmh W 6.9 mph11.1 kmh 29.64 in1003.7 mb - 0.00 in0.0 mm 0.01 in0.3 mm
01:50 PM 40.2°F4.6°C 37.8°F3.2°C 91% 3.5 mph W5.6 kmh W 6.9 mph11.1 kmh 29.63 in1003.4 mb - 0.00 in0.0 mm 0.01 in0.3 mm
01:45 PM 40.2°F4.6°C 37.8°F3.2°C 91% 2.3 mph W3.7 kmh W 4.6 mph7.4 kmh 29.64 in1003.7 mb - 0.00 in0.0 mm 0.01 in0.3 mm
01:40 PM 40.2°F4.6°C 37.8°F3.2°C 91% 1.2 mph W1.9 kmh W 3.5 mph5.6 kmh 29.63 in1003.4 mb - 0.00 in0.0 mm 0.01 in0.3 mm
01:35 PM 40.2°F4.6°C 37.8°F3.2°C 91% 3.5 mph W5.6 kmh W 4.6 mph7.4 kmh 29.63 in1003.4 mb - 0.00 in0.0 mm 0.01 in0.3 mm
01:30 PM 40.2°F4.6°C 38.3°F3.5°C 93% 3.5 mph W5.6 kmh W 4.6 mph7.4 kmh 29.64 in1003.7 mb - 0.00 in0.0 mm 0.01 in0.3 mm
01:25 PM 40.0°F4.4°C 38.1°F3.4°C 93% 2.3 mph W3.7 kmh W 4.6 mph7.4 kmh 29.63 in1003.4 mb - 0.00 in0.0 mm 0.01 in0.3 mm
01:20 PM 40.2°F4.6°C 38.3°F3.5°C 93% 3.5 mph W5.6 kmh W 3.5 mph5.6 kmh 29.64 in1003.7 mb - 0.00 in0.0 mm 0.01 in0.3 mm
01:15 PM 40.0°F4.4°C 38.1°F3.4°C 93% 1.2 mph WSW1.9 kmh WSW 4.6 mph7.4 kmh 29.63 in1003.4 mb - 0.00 in0.0 mm 0.01 in0.3 mm
01:10 PM 40.0°F4.4°C 38.1°F3.4°C 93% 2.3 mph W3.7 kmh W 4.6 mph7.4 kmh 29.63 in1003.4 mb - 0.00 in0.0 mm 0.01 in0.3 mm
01:00 PM 39.7°F4.3°C 37.8°F3.2°C 93% 2.3 mph WSW3.7 kmh WSW 4.6 mph7.4 kmh 29.64 in1003.7 mb - 0.00 in0.0 mm 0.01 in0.3 mm
12:55 PM 39.9°F4.4°C 38.0°F3.3°C 93% 3.5 mph SW5.6 kmh SW 4.6 mph7.4 kmh 29.64 in1003.7 mb - 0.00 in0.0 mm 0.01 in0.3 mm
12:50 PM 39.9°F4.4°C 38.0°F3.3°C 93% 2.3 mph WSW3.7 kmh WSW 4.6 mph7.4 kmh 29.63 in1003.4 mb - 0.00 in0.0 mm 0.01 in0.3 mm
12:45 PM 39.7°F4.3°C 37.8°F3.2°C 93% 2.3 mph WSW3.7 kmh WSW 4.6 mph7.4 kmh 29.64 in1003.7 mb - 0.00 in0.0 mm 0.01 in0.3 mm
12:40 PM 39.7°F4.3°C 37.8°F3.2°C 93% 1.2 mph SSW1.9 kmh SSW 4.6 mph7.4 kmh 29.64 in1003.7 mb - 0.00 in0.0 mm 0.01 in0.3 mm
12:35 PM 39.5°F4.2°C 37.7°F3.2°C 93% 3.5 mph SSW5.6 kmh SSW 4.6 mph7.4 kmh 29.64 in1003.7 mb - 0.00 in0.0 mm 0.01 in0.3 mm
12:30 PM 39.7°F4.3°C 37.8°F3.2°C 93% 3.5 mph SSW5.6 kmh SSW 3.5 mph5.6 kmh 29.64 in1003.7 mb - 0.00 in0.0 mm 0.01 in0.3 mm
12:25 PM 39.7°F4.3°C 37.8°F3.2°C 93% 2.3 mph SSW3.7 kmh SSW 3.5 mph5.6 kmh 29.65 in1004.1 mb - 0.00 in0.0 mm 0.01 in0.3 mm
12:20 PM 39.7°F4.3°C 37.8°F3.2°C 93% 1.2 mph SW1.9 kmh SW 4.6 mph7.4 kmh 29.65 in1004.1 mb - 0.00 in0.0 mm 0.01 in0.3 mm
12:15 PM 39.7°F4.3°C 37.8°F3.2°C 93% 3.5 mph WSW5.6 kmh WSW 4.6 mph7.4 kmh 29.65 in1004.1 mb - 0.00 in0.0 mm 0.01 in0.3 mm
12:10 PM 39.7°F4.3°C 37.8°F3.2°C 93% 2.3 mph S3.7 kmh S 3.5 mph5.6 kmh 29.64 in1003.7 mb - 0.00 in0.0 mm 0.01 in0.3 mm
12:00 PM 39.4°F4.1°C 38.1°F3.4°C 95% 2.3 mph SW3.7 kmh SW 3.5 mph5.6 kmh 29.64 in1003.7 mb - 0.00 in0.0 mm 0.01 in0.3 mm
11:55 AM 39.2°F4.0°C 38.2°F3.4°C 96% 2.3 mph W3.7 kmh W 5.8 mph9.3 kmh 29.65 in1004.1 mb - 0.00 in0.0 mm 0.01 in0.3 mm
11:50 AM 39.0°F3.9°C 37.9°F3.3°C 96% 1.2 mph SE1.9 kmh SE 5.8 mph9.3 kmh 29.65 in1004.1 mb - 0.00 in0.0 mm 0.01 in0.3 mm
11:45 AM 38.7°F3.7°C 37.7°F3.2°C 96% 5.8 mph S9.3 kmh S 5.8 mph9.3 kmh 29.66 in1004.4 mb - 0.00 in0.0 mm 0.01 in0.3 mm
11:40 AM 38.7°F3.7°C 37.7°F3.2°C 96% 2.3 mph SSW3.7 kmh SSW 3.5 mph5.6 kmh 29.66 in1004.4 mb - 0.00 in0.0 mm 0.01 in0.3 mm
11:35 AM 38.2°F3.4°C 37.7°F3.2°C 98% 2.3 mph SSW3.7 kmh SSW 3.5 mph5.6 kmh 29.66 in1004.4 mb - 0.00 in0.0 mm 0.01 in0.3 mm
11:30 AM 38.0°F3.3°C 37.5°F3.1°C 98% 2.3 mph SW3.7 kmh SW 3.5 mph5.6 kmh 29.66 in1004.4 mb - 0.00 in0.0 mm 0.01 in0.3 mm
11:25 AM 37.8°F3.2°C 37.3°F2.9°C 98% 2.3 mph SSW3.7 kmh SSW 3.5 mph5.6 kmh 29.66 in1004.4 mb - 0.00 in0.0 mm 0.01 in0.3 mm
11:20 AM 37.7°F3.2°C 37.2°F2.9°C 98% 3.5 mph SSW5.6 kmh SSW 4.6 mph7.4 kmh 29.66 in1004.4 mb - 0.00 in0.0 mm 0.01 in0.3 mm
11:15 AM 37.7°F3.2°C 37.2°F2.9°C 98% 3.5 mph SSW5.6 kmh SSW 4.6 mph7.4 kmh 29.66 in1004.4 mb - 0.00 in0.0 mm 0.01 in0.3 mm
11:10 AM 37.7°F3.2°C 37.2°F2.9°C 98% 2.3 mph S3.7 kmh S 4.6 mph7.4 kmh 29.66 in1004.4 mb - 0.00 in0.0 mm 0.01 in0.3 mm
11:00 AM 37.5°F3.1°C 37.0°F2.8°C 98% 1.2 mph SSW1.9 kmh SSW 5.8 mph9.3 kmh 29.66 in1004.4 mb - 0.00 in0.0 mm 0.01 in0.3 mm
10:55 AM 37.5°F3.1°C 37.0°F2.8°C 98% 3.5 mph SSW5.6 kmh SSW 5.8 mph9.3 kmh 29.67 in1004.7 mb - 0.00 in0.0 mm 0.01 in0.3 mm
10:50 AM 37.5°F3.1°C 37.0°F2.8°C 98% 2.3 mph SW3.7 kmh SW 5.8 mph9.3 kmh 29.66 in1004.4 mb - 0.00 in0.0 mm 0.01 in0.3 mm
10:45 AM 37.5°F3.1°C 37.0°F2.8°C 98% 3.5 mph SSW5.6 kmh SSW 5.8 mph9.3 kmh 29.67 in1004.7 mb - 0.00 in0.0 mm 0.01 in0.3 mm
10:40 AM 37.5°F3.1°C 37.0°F2.8°C 98% 4.6 mph SSW7.4 kmh SSW 5.8 mph9.3 kmh 29.67 in1004.7 mb - 0.00 in0.0 mm 0.01 in0.3 mm
10:35 AM 37.5°F3.1°C 37.0°F2.8°C 98% 3.5 mph SSW5.6 kmh SSW 5.8 mph9.3 kmh 29.67 in1004.7 mb - 0.00 in0.0 mm 0.01 in0.3 mm
10:30 AM 37.7°F3.2°C 37.2°F2.9°C 98% 2.3 mph SW3.7 kmh SW 3.5 mph5.6 kmh 29.66 in1004.4 mb - 0.00 in0.0 mm 0.01 in0.3 mm
10:25 AM 37.7°F3.2°C 37.2°F2.9°C 98% 2.3 mph SW3.7 kmh SW 3.5 mph5.6 kmh 29.66 in1004.4 mb - 0.00 in0.0 mm 0.01 in0.3 mm
10:20 AM 37.7°F3.2°C 37.2°F2.9°C 98% 3.5 mph SSW5.6 kmh SSW 3.5 mph5.6 kmh 29.67 in1004.7 mb - 0.00 in0.0 mm 0.01 in0.3 mm
10:15 AM 37.5°F3.1°C 37.0°F2.8°C 98% 3.5 mph SW5.6 kmh SW 3.5 mph5.6 kmh 29.67 in1004.7 mb - 0.00 in0.0 mm 0.01 in0.3 mm
10:10 AM 37.5°F3.1°C 37.0°F2.8°C 98% 1.2 mph SSE1.9 kmh SSE 3.5 mph5.6 kmh 29.67 in1004.7 mb - 0.00 in0.0 mm 0.01 in0.3 mm
10:00 AM 37.4°F3.0°C 36.9°F2.7°C 98% 1.2 mph S1.9 kmh S 3.5 mph5.6 kmh 29.66 in1004.4 mb - 0.00 in0.0 mm 0.01 in0.3 mm
09:55 AM 37.4°F3.0°C 36.9°F2.7°C 98% 3.5 mph S5.6 kmh S 3.5 mph5.6 kmh 29.66 in1004.4 mb - 0.00 in0.0 mm 0.01 in0.3 mm
09:50 AM 37.2°F2.9°C 36.7°F2.6°C 98% 2.3 mph S3.7 kmh S 3.5 mph5.6 kmh 29.66 in1004.4 mb - 0.00 in0.0 mm 0.01 in0.3 mm
09:45 AM 37.2°F2.9°C 36.7°F2.6°C 98% 2.3 mph SW3.7 kmh SW 3.5 mph5.6 kmh 29.66 in1004.4 mb - 0.00 in0.0 mm 0.01 in0.3 mm
09:40 AM 37.0°F2.8°C 36.5°F2.5°C 98% 2.3 mph S3.7 kmh S 4.6 mph7.4 kmh 29.66 in1004.4 mb - 0.00 in0.0 mm 0.01 in0.3 mm
09:35 AM 37.0°F2.8°C 36.5°F2.5°C 98% 3.5 mph S5.6 kmh S 4.6 mph7.4 kmh 29.66 in1004.4 mb - 0.00 in0.0 mm 0.01 in0.3 mm
09:30 AM 37.0°F2.8°C 36.5°F2.5°C 98% 4.6 mph SSW7.4 kmh SSW 4.6 mph7.4 kmh 29.65 in1004.1 mb - 0.00 in0.0 mm 0.01 in0.3 mm
09:25 AM 36.9°F2.7°C 36.4°F2.4°C 98% 1.2 mph S1.9 kmh S 4.6 mph7.4 kmh 29.66 in1004.4 mb - 0.00 in0.0 mm 0.01 in0.3 mm
09:20 AM 36.9°F2.7°C 36.4°F2.4°C 98% 2.3 mph SSW3.7 kmh SSW 4.6 mph7.4 kmh 29.66 in1004.4 mb - 0.00 in0.0 mm 0.01 in0.3 mm
09:15 AM 36.9°F2.7°C 36.4°F2.4°C 98% 3.5 mph SSW5.6 kmh SSW 4.6 mph7.4 kmh 29.66 in1004.4 mb - 0.00 in0.0 mm 0.01 in0.3 mm
09:10 AM 36.9°F2.7°C 36.4°F2.4°C 98% 2.3 mph SSW3.7 kmh SSW 3.5 mph5.6 kmh 29.65 in1004.1 mb - 0.00 in0.0 mm 0.01 in0.3 mm
09:00 AM 36.9°F2.7°C 36.4°F2.4°C 98% 1.2 mph S1.9 kmh S 3.5 mph5.6 kmh 29.65 in1004.1 mb - 0.01 in0.3 mm 0.01 in0.3 mm
08:55 AM 36.9°F2.7°C 36.4°F2.4°C 98% 3.5 mph SW5.6 kmh SW 3.5 mph5.6 kmh 29.65 in1004.1 mb - 0.00 in0.0 mm 0.00 in0.0 mm
08:50 AM 36.9°F2.7°C 36.4°F2.4°C 98% 3.5 mph SSW5.6 kmh SSW 3.5 mph5.6 kmh 29.65 in1004.1 mb - 0.00 in0.0 mm 0.00 in0.0 mm
08:45 AM 36.9°F2.7°C 36.4°F2.4°C 98% 2.3 mph SW3.7 kmh SW 3.5 mph5.6 kmh 29.64 in1003.7 mb - 0.00 in0.0 mm 0.00 in0.0 mm
08:40 AM 36.9°F2.7°C 36.4°F2.4°C 98% 2.3 mph S3.7 kmh S 3.5 mph5.6 kmh 29.64 in1003.7 mb - 0.00 in0.0 mm 0.00 in0.0 mm
08:35 AM 36.9°F2.7°C 36.4°F2.4°C 98% 1.2 mph SSW1.9 kmh SSW 3.5 mph5.6 kmh 29.64 in1003.7 mb - 0.00 in0.0 mm 0.00 in0.0 mm
08:30 AM 36.9°F2.7°C 36.4°F2.4°C 98% 2.3 mph SSW3.7 kmh SSW 3.5 mph5.6 kmh 29.64 in1003.7 mb - 0.00 in0.0 mm 0.00 in0.0 mm
08:25 AM 36.9°F2.7°C 36.4°F2.4°C 98% 2.3 mph SW3.7 kmh SW 3.5 mph5.6 kmh 29.63 in1003.4 mb - 0.00 in0.0 mm 0.00 in0.0 mm
08:20 AM 36.9°F2.7°C 36.4°F2.4°C 98% 1.2 mph SSW1.9 kmh SSW 3.5 mph5.6 kmh 29.63 in1003.4 mb - 0.00 in0.0 mm 0.00 in0.0 mm
08:15 AM 36.9°F2.7°C 36.4°F2.4°C 98% 3.5 mph S5.6 kmh S 3.5 mph5.6 kmh 29.63 in1003.4 mb - 0.00 in0.0 mm 0.00 in0.0 mm
08:10 AM 36.9°F2.7°C 36.4°F2.4°C 98% 1.2 mph SSW1.9 kmh SSW 2.3 mph3.7 kmh 29.63 in1003.4 mb - 0.00 in0.0 mm 0.00 in0.0 mm
08:00 AM 36.9°F2.7°C 36.4°F2.4°C 98% 1.2 mph SSW1.9 kmh SSW 2.3 mph3.7 kmh 29.63 in1003.4 mb - 0.00 in0.0 mm 0.00 in0.0 mm
07:55 AM 36.9°F2.7°C 36.4°F2.4°C 98% Calm Calm 2.3 mph3.7 kmh 29.62 in1003.0 mb - 0.00 in0.0 mm 0.00 in0.0 mm
07:50 AM 36.9°F2.7°C 36.4°F2.4°C 98% 1.2 mph S1.9 kmh S 2.3 mph3.7 kmh 29.63 in1003.4 mb - 0.00 in0.0 mm 0.00 in0.0 mm
07:45 AM 36.9°F2.7°C 36.4°F2.4°C 98% 2.3 mph S3.7 kmh S 3.5 mph5.6 kmh 29.62 in1003.0 mb - 0.00 in0.0 mm 0.00 in0.0 mm
07:40 AM 37.0°F2.8°C 36.5°F2.5°C 98% 1.2 mph SSW1.9 kmh SSW 3.5 mph5.6 kmh 29.62 in1003.0 mb - 0.00 in0.0 mm 0.00 in0.0 mm
07:35 AM 37.0°F2.8°C 36.5°F2.5°C 98% 2.3 mph SSW3.7 kmh SSW 2.3 mph3.7 kmh 29.62 in1003.0 mb - 0.00 in0.0 mm 0.00 in0.0 mm
07:30 AM 37.0°F2.8°C 36.5°F2.5°C 98% 1.2 mph SW1.9 kmh SW 2.3 mph3.7 kmh 29.62 in1003.0 mb - 0.00 in0.0 mm 0.00 in0.0 mm
07:25 AM 37.0°F2.8°C 36.5°F2.5°C 98% 1.2 mph S1.9 kmh S 2.3 mph3.7 kmh 29.62 in1003.0 mb - 0.00 in0.0 mm 0.00 in0.0 mm
07:20 AM 37.0°F2.8°C 36.5°F2.5°C 98% 2.3 mph SSW3.7 kmh SSW 2.3 mph3.7 kmh 29.61 in1002.7 mb - 0.00 in0.0 mm 0.00 in0.0 mm
07:15 AM 37.0°F2.8°C 36.5°F2.5°C 98% 1.2 mph SSW1.9 kmh SSW 2.3 mph3.7 kmh 29.61 in1002.7 mb - 0.00 in0.0 mm 0.00 in0.0 mm
07:10 AM 37.0°F2.8°C 36.5°F2.5°C 98% Calm Calm 3.5 mph5.6 kmh 29.61 in1002.7 mb - 0.00 in0.0 mm 0.00 in0.0 mm
07:00 AM 37.0°F2.8°C 36.5°F2.5°C 98% Calm Calm 3.5 mph5.6 kmh 29.60 in1002.4 mb - 0.00 in0.0 mm 0.00 in0.0 mm
06:55 AM 37.0°F2.8°C 36.5°F2.5°C 98% 2.3 mph SSW3.7 kmh SSW 3.5 mph5.6 kmh 29.61 in1002.7 mb - 0.00 in0.0 mm 0.00 in0.0 mm
06:50 AM 37.0°F2.8°C 36.5°F2.5°C 98% 2.3 mph SSW3.7 kmh SSW 3.5 mph5.6 kmh 29.61 in1002.7 mb - 0.00 in0.0 mm 0.00 in0.0 mm
06:45 AM 37.0°F2.8°C 36.5°F2.5°C 98% 1.2 mph SSW1.9 kmh SSW 3.5 mph5.6 kmh 29.61 in1002.7 mb - 0.00 in0.0 mm 0.00 in0.0 mm
06:40 AM 37.2°F2.9°C 36.7°F2.6°C 98% 1.2 mph SE1.9 kmh SE 2.3 mph3.7 kmh 29.61 in1002.7 mb - 0.00 in0.0 mm 0.00 in0.0 mm
06:35 AM 37.2°F2.9°C 36.7°F2.6°C 98% 1.2 mph SSW1.9 kmh SSW 2.3 mph3.7 kmh 29.60 in1002.4 mb - 0.00 in0.0 mm 0.00 in0.0 mm
06:30 AM 37.2°F2.9°C 36.7°F2.6°C 98% 2.3 mph SW3.7 kmh SW 3.5 mph5.6 kmh 29.61 in1002.7 mb - 0.00 in0.0 mm 0.00 in0.0 mm
06:25 AM 37.2°F2.9°C 36.7°F2.6°C 98% 2.3 mph SSW3.7 kmh SSW 3.5 mph5.6 kmh 29.60 in1002.4 mb - 0.00 in0.0 mm 0.00 in0.0 mm
06:20 AM 37.2°F2.9°C 36.7°F2.6°C 98% 1.2 mph S1.9 kmh S 3.5 mph5.6 kmh 29.61 in1002.7 mb - 0.00 in0.0 mm 0.00 in0.0 mm
06:15 AM 37.2°F2.9°C 36.7°F2.6°C 98% 1.2 mph SSW1.9 kmh SSW 2.3 mph3.7 kmh 29.60 in1002.4 mb - 0.00 in0.0 mm 0.00 in0.0 mm
06:10 AM 37.4°F3.0°C 36.9°F2.7°C 98% Calm Calm 2.3 mph3.7 kmh 29.60 in1002.4 mb - 0.00 in0.0 mm 0.00 in0.0 mm
06:00 AM 37.5°F3.1°C 37.0°F2.8°C 98% Calm Calm 2.3 mph3.7 kmh 29.59 in1002.0 mb - 0.00 in0.0 mm 0.00 in0.0 mm
05:55 AM 37.5°F3.1°C 37.0°F2.8°C 98% 1.2 mph S1.9 kmh S 1.2 mph1.9 kmh 29.59 in1002.0 mb - 0.00 in0.0 mm 0.00 in0.0 mm
05:50 AM 37.5°F3.1°C 37.0°F2.8°C 98% 1.2 mph SSE1.9 kmh SSE 1.2 mph1.9 kmh 29.59 in1002.0 mb - 0.00 in0.0 mm 0.00 in0.0 mm
05:45 AM 37.5°F3.1°C 37.0°F2.8°C 98% Calm Calm 1.2 mph1.9 kmh 29.58 in1001.7 mb - 0.00 in0.0 mm 0.00 in0.0 mm
05:40 AM 37.5°F3.1°C 37.0°F2.8°C 98% Calm Calm 1.2 mph1.9 kmh 29.58 in1001.7 mb - 0.00 in0.0 mm 0.00 in0.0 mm
05:35 AM 37.5°F3.1°C 37.0°F2.8°C 98% Calm Calm 1.2 mph1.9 kmh 29.59 in1002.0 mb - 0.00 in0.0 mm 0.00 in0.0 mm
05:30 AM 37.5°F3.1°C 37.0°F2.8°C 98% Calm Calm 1.2 mph1.9 kmh 29.59 in1002.0 mb - 0.00 in0.0 mm 0.00 in0.0 mm
05:25 AM 37.5°F3.1°C 37.0°F2.8°C 98% Calm Calm 1.2 mph1.9 kmh 29.59 in1002.0 mb - 0.00 in0.0 mm 0.00 in0.0 mm
05:20 AM 37.5°F3.1°C 37.0°F2.8°C 98% Calm Calm 1.2 mph1.9 kmh 29.59 in1002.0 mb - 0.00 in0.0 mm 0.00 in0.0 mm
05:15 AM 37.5°F3.1°C 37.0°F2.8°C 98% Calm Calm 1.2 mph1.9 kmh 29.58 in1001.7 mb - 0.00 in0.0 mm 0.00 in0.0 mm
05:10 AM 37.5°F3.1°C 37.0°F2.8°C 98% Calm Calm 2.3 mph3.7 kmh 29.58 in1001.7 mb - 0.00 in0.0 mm 0.00 in0.0 mm
05:00 AM 37.5°F3.1°C 37.0°F2.8°C 98% 2.3 mph SSW3.7 kmh SSW 3.5 mph5.6 kmh 29.59 in1002.0 mb - 0.00 in0.0 mm 0.00 in0.0 mm
04:55 AM 37.5°F3.1°C 37.0°F2.8°C 98% 1.2 mph SSW1.9 kmh SSW 2.3 mph3.7 kmh 29.58 in1001.7 mb - 0.00 in0.0 mm 0.00 in0.0 mm
04:50 AM 37.5°F3.1°C 37.0°F2.8°C 98% 1.2 mph SW1.9 kmh SW 2.3 mph3.7 kmh 29.59 in1002.0 mb - 0.00 in0.0 mm 0.00 in0.0 mm
04:45 AM 37.5°F3.1°C 37.0°F2.8°C 98% Calm Calm -- 29.59 in1002.0 mb - 0.00 in0.0 mm 0.00 in0.0 mm
04:40 AM 37.5°F3.1°C 37.0°F2.8°C 98% Calm Calm 2.3 mph3.7 kmh 29.58 in1001.7 mb - 0.00 in0.0 mm 0.00 in0.0 mm
04:35 AM 37.5°F3.1°C 37.0°F2.8°C 98% Calm Calm 2.3 mph3.7 kmh 29.59 in1002.0 mb - 0.00 in0.0 mm 0.00 in0.0 mm
04:30 AM 37.5°F3.1°C 37.0°F2.8°C 98% Calm Calm -- 29.58 in1001.7 mb - 0.00 in0.0 mm 0.00 in0.0 mm
04:25 AM 37.5°F3.1°C 37.0°F2.8°C 98% Calm Calm -- 29.58 in1001.7 mb - 0.00 in0.0 mm 0.00 in0.0 mm
04:20 AM 37.5°F3.1°C 37.0°F2.8°C 98% Calm Calm 2.3 mph3.7 kmh 29.59 in1002.0 mb - 0.00 in0.0 mm 0.00 in0.0 mm
04:15 AM 37.5°F3.1°C 37.0°F2.8°C 98% Calm Calm 2.3 mph3.7 kmh 29.59 in1002.0 mb - 0.00 in0.0 mm 0.00 in0.0 mm
04:10 AM 37.5°F3.1°C 37.0°F2.8°C 98% Calm Calm -- 29.58 in1001.7 mb - 0.00 in0.0 mm 0.00 in0.0 mm
04:00 AM 37.5°F3.1°C 37.0°F2.8°C 98% Calm Calm -- 29.59 in1002.0 mb - 0.00 in0.0 mm 0.00 in0.0 mm
03:55 AM 37.5°F3.1°C 37.0°F2.8°C 98% Calm Calm -- 29.58 in1001.7 mb - 0.00 in0.0 mm 0.00 in0.0 mm
03:50 AM 37.7°F3.2°C 37.2°F2.9°C 98% Calm Calm -- 29.58 in1001.7 mb - 0.00 in0.0 mm 0.00 in0.0 mm
03:45 AM 37.8°F3.2°C 37.3°F2.9°C 98% Calm Calm -- 29.59 in1002.0 mb - 0.00 in0.0 mm 0.00 in0.0 mm
03:40 AM 38.0°F3.3°C 37.5°F3.1°C 98% Calm Calm -- 29.58 in1001.7 mb - 0.00 in0.0 mm 0.00 in0.0 mm
03:35 AM 38.0°F3.3°C 37.5°F3.1°C 98% Calm Calm -- 29.58 in1001.7 mb - 0.00 in0.0 mm 0.00 in0.0 mm
03:30 AM 38.0°F3.3°C 37.5°F3.1°C 98% Calm Calm 1.2 mph1.9 kmh 29.58 in1001.7 mb - 0.00 in0.0 mm 0.00 in0.0 mm
03:25 AM 38.0°F3.3°C 37.5°F3.1°C 98% Calm Calm 2.3 mph3.7 kmh 29.58 in1001.7 mb - 0.00 in0.0 mm 0.00 in0.0 mm
03:20 AM 37.8°F3.2°C 37.3°F2.9°C 98% Calm Calm 2.3 mph3.7 kmh 29.58 in1001.7 mb - 0.00 in0.0 mm 0.00 in0.0 mm
03:15 AM 37.8°F3.2°C 37.3°F2.9°C 98% Calm Calm -- 29.58 in1001.7 mb - 0.00 in0.0 mm 0.00 in0.0 mm
03:10 AM 37.7°F3.2°C 37.2°F2.9°C 98% Calm Calm -- 29.58 in1001.7 mb - 0.00 in0.0 mm 0.00 in0.0 mm
03:00 AM 37.5°F3.1°C 37.0°F2.8°C 98% Calm Calm -- 29.59 in1002.0 mb - 0.00 in0.0 mm 0.00 in0.0 mm
02:55 AM 37.5°F3.1°C 37.0°F2.8°C 98% Calm Calm -- 29.58 in1001.7 mb - 0.00 in0.0 mm 0.00 in0.0 mm
02:50 AM 37.5°F3.1°C 37.0°F2.8°C 98% Calm Calm -- 29.58 in1001.7 mb - 0.00 in0.0 mm 0.00 in0.0 mm
02:45 AM 37.5°F3.1°C 37.0°F2.8°C 98% Calm Calm -- 29.58 in1001.7 mb - 0.00 in0.0 mm 0.00 in0.0 mm
02:40 AM 37.5°F3.1°C 37.0°F2.8°C 98% Calm Calm -- 29.58 in1001.7 mb - 0.00 in0.0 mm 0.00 in0.0 mm
02:35 AM 37.5°F3.1°C 37.0°F2.8°C 98% Calm Calm -- 29.58 in1001.7 mb - 0.00 in0.0 mm 0.00 in0.0 mm
02:30 AM 37.5°F3.1°C 37.0°F2.8°C 98% Calm Calm -- 29.58 in1001.7 mb - 0.00 in0.0 mm 0.00 in0.0 mm
02:25 AM 37.5°F3.1°C 37.0°F2.8°C 98% Calm Calm -- 29.58 in1001.7 mb - 0.00 in0.0 mm 0.00 in0.0 mm
02:20 AM 37.5°F3.1°C 37.0°F2.8°C 98% Calm Calm -- 29.58 in1001.7 mb - 0.00 in0.0 mm 0.00 in0.0 mm
02:15 AM 37.7°F3.2°C 37.2°F2.9°C 98% Calm Calm -- 29.57 in1001.4 mb - 0.00 in0.0 mm 0.00 in0.0 mm
02:10 AM 37.7°F3.2°C 37.2°F2.9°C 98% Calm Calm -- 29.58 in1001.7 mb - 0.00 in0.0 mm 0.00 in0.0 mm
02:00 AM 37.8°F3.2°C 37.3°F2.9°C 98% Calm Calm -- 29.58 in1001.7 mb - 0.00 in0.0 mm 0.00 in0.0 mm
01:55 AM 37.8°F3.2°C 37.3°F2.9°C 98% Calm Calm -- 29.57 in1001.4 mb - 0.00 in0.0 mm 0.00 in0.0 mm
01:50 AM 38.0°F3.3°C 37.5°F3.1°C 98% Calm Calm -- 29.58 in1001.7 mb - 0.00 in0.0 mm 0.00 in0.0 mm
01:45 AM 38.0°F3.3°C 37.5°F3.1°C 98% Calm Calm -- 29.57 in1001.4 mb - 0.00 in0.0 mm 0.00 in0.0 mm
01:40 AM 38.0°F3.3°C 37.5°F3.1°C 98% Calm Calm -- 29.58 in1001.7 mb - 0.00 in0.0 mm 0.00 in0.0 mm
01:35 AM 38.0°F3.3°C 37.5°F3.1°C 98% Calm Calm -- 29.57 in1001.4 mb - 0.00 in0.0 mm 0.00 in0.0 mm
01:30 AM 38.0°F3.3°C 37.5°F3.1°C 98% Calm Calm -- 29.58 in1001.7 mb - 0.00 in0.0 mm 0.00 in0.0 mm
01:25 AM 38.0°F3.3°C 37.5°F3.1°C 98% Calm Calm -- 29.58 in1001.7 mb - 0.00 in0.0 mm 0.00 in0.0 mm
01:20 AM 38.0°F3.3°C 37.5°F3.1°C 98% Calm Calm -- 29.58 in1001.7 mb - 0.00 in0.0 mm 0.00 in0.0 mm
01:15 AM 38.0°F3.3°C 37.5°F3.1°C 98% Calm Calm -- 29.58 in1001.7 mb - 0.00 in0.0 mm 0.00 in0.0 mm
01:10 AM 38.0°F3.3°C 37.5°F3.1°C 98% Calm Calm 1.2 mph1.9 kmh 29.58 in1001.7 mb - 0.00 in0.0 mm 0.00 in0.0 mm
01:00 AM 38.2°F3.4°C 37.7°F3.2°C 98% 1.2 mph ESE1.9 kmh ESE 1.2 mph1.9 kmh 29.57 in1001.4 mb - 0.00 in0.0 mm 0.00 in0.0 mm
12:55 AM 38.2°F3.4°C 37.7°F3.2°C 98% Calm Calm -- 29.57 in1001.4 mb - 0.00 in0.0 mm 0.00 in0.0 mm
12:50 AM 38.2°F3.4°C 37.7°F3.2°C 98% Calm Calm -- 29.58 in1001.7 mb - 0.00 in0.0 mm 0.00 in0.0 mm
12:45 AM 38.2°F3.4°C 37.7°F3.2°C 98% Calm Calm 2.3 mph3.7 kmh 29.57 in1001.4 mb - 0.00 in0.0 mm 0.00 in0.0 mm
12:40 AM 38.2°F3.4°C 37.7°F3.2°C 98% Calm Calm 2.3 mph3.7 kmh 29.58 in1001.7 mb - 0.00 in0.0 mm 0.00 in0.0 mm
12:35 AM 38.2°F3.4°C 37.7°F3.2°C 98% Calm Calm 2.3 mph3.7 kmh 29.57 in1001.4 mb - 0.00 in0.0 mm 0.00 in0.0 mm
12:30 AM 38.2°F3.4°C 37.7°F3.2°C 98% Calm Calm 2.3 mph3.7 kmh 29.58 in1001.7 mb - 0.00 in0.0 mm 0.00 in0.0 mm
12:25 AM 38.2°F3.4°C 37.7°F3.2°C 98% 1.2 mph SW1.9 kmh SW 2.3 mph3.7 kmh 29.57 in1001.4 mb - 0.00 in0.0 mm 0.00 in0.0 mm
12:20 AM 37.7°F3.2°C 37.2°F2.9°C 98% Calm Calm -- 29.58 in1001.7 mb - 0.00 in0.0 mm 0.00 in0.0 mm
12:15 AM 37.5°F3.1°C 37.0°F2.8°C 98% Calm Calm 1.2 mph1.9 kmh 29.57 in1001.4 mb - 0.00 in0.0 mm 0.00 in0.0 mm
12:10 AM 37.5°F3.1°C 37.0°F2.8°C 98% Calm Calm 1.2 mph1.9 kmh 29.58 in1001.7 mb - 0.00 in0.0 mm 0.00 in0.0 mm
12:00 AM 37.4°F3.0°C 36.9°F2.7°C 98% Calm Calm 1.2 mph1.9 kmh 29.57 in1001.4 mb - 0.00 in0.0 mm 0.00 in0.0 mm